Time;durP1;ratioP1;P1;durP2;ratioP2;P2;SDS_P1;SDS_P2;PMS_P1;PMS_P2;Temp;Humidity;BMP_temperature;BMP_pressure;BME280_temperature;BME280_humidity;BME280_pressure;Samples;Min_cycle;Max_cycle;Signal;HPM_P1;HPM_P2
2023/08/13 06:02:09;;;;;;;23.90;3.78;;;;;;;;;;5088507;23;20044;-79
2023/08/13 06:04:34;;;;;;;29.70;4.22;;;;;;;;;;4896642;29;20508;-79
2023/08/13 06:07:01;;;;;;;32.25;4.00;;;;;;;;;;4897805;29;20071;-78
2023/08/13 06:09:26;;;;;;;24.63;4.40;;;;;;;;;;4890730;29;20164;-79
2023/08/13 06:11:52;;;;;;;33.88;3.95;;;;;;;;;;4882824;29;20491;-77
2023/08/13 06:14:18;;;;;;;31.40;3.85;;;;;;;;;;4888830;29;20597;-78
2023/08/13 06:16:43;;;;;;;25.58;4.25;;;;;;;;;;4889095;29;20051;-77
2023/08/13 06:19:09;;;;;;;23.90;4.28;;;;;;;;;;4888744;29;20045;-78
2023/08/13 06:21:34;;;;;;;27.15;3.88;;;;;;;;;;4889088;29;20079;-81
2023/08/13 06:24:00;;;;;;;27.63;4.05;;;;;;;;;;4888950;29;20078;-78
2023/08/13 06:26:25;;;;;;;33.20;4.07;;;;;;;;;;4888472;29;20032;-78
2023/08/13 06:28:50;;;;;;;32.97;4.35;;;;;;;;;;4889501;29;20509;-80
2023/08/13 06:31:16;;;;;;;34.45;4.20;;;;;;;;;;4888274;29;20040;-81
2023/08/13 06:33:42;;;;;;;22.85;3.55;;;;;;;;;;4888830;29;20052;-79
2023/08/13 06:36:07;;;;;;;26.50;4.20;;;;;;;;;;4888393;29;20127;-80
2023/08/13 06:38:34;;;;;;;28.77;4.47;;;;;;;;;;4888118;29;20203;-79
2023/08/13 06:41:08;;;;;;;24.25;4.15;;;;;;;;;;4888869;29;20187;-79
2023/08/13 06:43:33;;;;;;;29.23;4.45;;;;;;;;;;4889069;29;20048;-80
2023/08/13 06:46:00;;;;;;;29.98;3.67;;;;;;;;;;4888467;29;20044;-80
2023/08/13 06:48:27;;;;;;;20.15;3.58;;;;;;;;;;4887610;29;20052;-81
2023/08/13 06:50:56;;;;;;;20.02;3.47;;;;;;;;;;4887331;29;20081;-79
2023/08/13 06:53:23;;;;;;;21.20;4.00;;;;;;;;;;4871258;29;20083;-80
2023/08/13 06:55:49;;;;;;;26.73;3.60;;;;;;;;;;4888849;29;20063;-78
2023/08/13 06:58:14;;;;;;;19.85;3.22;;;;;;;;;;4888249;29;20052;-78
2023/08/13 07:00:40;;;;;;;25.27;3.25;;;;;;;;;;4889919;29;20416;-77
2023/08/13 07:03:07;;;;;;;22.05;3.20;;;;;;;;;;4889685;29;20531;-78
2023/08/13 07:05:34;;;;;;;17.15;3.13;;;;;;;;;;4889657;29;20067;-79
2023/08/13 07:07:59;;;;;;;23.75;2.80;;;;;;;;;;4894464;29;20169;-79
2023/08/13 07:10:25;;;;;;;19.42;3.88;;;;;;;;;;4894501;29;21299;-79
2023/08/13 07:12:50;;;;;;;18.35;2.85;;;;;;;;;;4895821;29;20049;-79
2023/08/13 07:15:16;;;;;;;18.50;2.55;;;;;;;;;;4895618;29;20045;-78
2023/08/13 07:17:41;;;;;;;17.67;3.20;;;;;;;;;;4897360;29;20088;-79
2023/08/13 07:20:09;;;;;;;20.17;2.78;;;;;;;;;;4896784;29;20044;-79
2023/08/13 07:22:37;;;;;;;19.42;2.70;;;;;;;;;;4880000;29;20044;-78
2023/08/13 07:25:03;;;;;;;19.83;2.70;;;;;;;;;;4896513;29;20056;-79
2023/08/13 07:27:29;;;;;;;21.42;2.38;;;;;;;;;;4896165;29;20477;-79
2023/08/13 07:29:54;;;;;;;18.00;2.85;;;;;;;;;;4896093;29;20056;-80
2023/08/13 07:32:19;;;;;;;19.00;3.30;;;;;;;;;;4895981;29;20044;-79
2023/08/13 07:34:45;;;;;;;22.48;3.33;;;;;;;;;;4897328;29;20124;-79
2023/08/13 07:37:10;;;;;;;17.58;2.65;;;;;;;;;;4896694;29;20044;-80
2023/08/13 07:39:36;;;;;;;17.42;2.42;;;;;;;;;;4896801;29;20047;-79
2023/08/13 07:42:03;;;;;;;17.55;2.58;;;;;;;;;;4896237;29;20059;-79
2023/08/13 07:44:28;;;;;;;14.75;2.33;;;;;;;;;;4895519;29;20048;-80
2023/08/13 07:46:57;;;;;;;21.60;2.67;;;;;;;;;;4896915;29;20048;-79
2023/08/13 07:49:24;;;;;;;15.90;2.78;;;;;;;;;;4895927;29;20045;-79
2023/08/13 07:51:50;;;;;;;17.52;2.60;;;;;;;;;;4896062;29;20127;-79
2023/08/13 07:54:15;;;;;;;15.30;1.95;;;;;;;;;;4895837;29;20140;-80
2023/08/13 07:56:41;;;;;;;17.02;2.72;;;;;;;;;;4896033;29;20044;-80
2023/08/13 07:59:06;;;;;;;13.20;2.42;;;;;;;;;;4895654;29;20044;-80
2023/08/13 08:01:32;;;;;;;13.80;2.60;;;;;;;;;;4895486;29;20049;-80
2023/08/13 08:03:57;;;;;;;13.95;2.65;;;;;;;;;;4895586;29;20132;-81
2023/08/13 08:06:22;;;;;;;14.65;2.55;;;;;;;;;;4895306;29;20049;-80
2023/08/13 08:08:48;;;;;;;12.98;2.30;;;;;;;;;;4896148;29;20143;-80
2023/08/13 08:11:13;;;;;;;14.15;2.40;;;;;;;;;;4894748;29;20041;-80
2023/08/13 08:13:38;;;;;;;14.48;2.30;;;;;;;;;;4895440;29;20049;-79
2023/08/13 08:16:04;;;;;;;8.88;1.63;;;;;;;;;;4895777;29;20071;-80
2023/08/13 08:18:29;;;;;;;8.95;2.08;;;;;;;;;;4895864;29;20044;-78
2023/08/13 08:20:55;;;;;;;15.57;2.63;;;;;;;;;;4895554;29;20049;-79
2023/08/13 08:23:20;;;;;;;12.50;2.22;;;;;;;;;;4894637;29;20052;-80
2023/08/13 08:25:46;;;;;;;10.90;2.25;;;;;;;;;;4895271;29;20064;-79
2023/08/13 08:28:11;;;;;;;13.48;1.95;;;;;;;;;;4896437;29;20115;-80
2023/08/13 08:30:37;;;;;;;17.13;2.10;;;;;;;;;;4898951;29;20044;-80
2023/08/13 08:33:03;;;;;;;14.13;2.53;;;;;;;;;;4899258;29;20037;-80
2023/08/13 08:35:28;;;;;;;12.27;2.40;;;;;;;;;;4898246;29;20048;-79
2023/08/13 08:37:53;;;;;;;12.95;2.03;;;;;;;;;;4899462;29;20659;-80
2023/08/13 08:40:20;;;;;;;11.82;2.05;;;;;;;;;;4899008;29;20045;-80
2023/08/13 08:42:46;;;;;;;11.85;1.95;;;;;;;;;;4899376;29;20067;-80
2023/08/13 08:45:13;;;;;;;10.85;2.10;;;;;;;;;;4898450;29;20068;-80
2023/08/13 08:47:40;;;;;;;11.75;2.40;;;;;;;;;;4882225;29;20468;-79
2023/08/13 08:50:09;;;;;;;14.52;2.20;;;;;;;;;;4897845;29;20048;-78
2023/08/13 08:52:35;;;;;;;11.55;2.13;;;;;;;;;;4899191;29;20053;-80
2023/08/13 08:55:02;;;;;;;12.48;1.80;;;;;;;;;;4898524;29;20044;-80
2023/08/13 08:57:28;;;;;;;12.93;2.25;;;;;;;;;;4898249;29;20044;-78
2023/08/13 08:59:53;;;;;;;11.32;1.90;;;;;;;;;;4897941;29;20041;-78
2023/08/13 09:02:18;;;;;;;11.45;2.03;;;;;;;;;;4898029;29;20087;-80
2023/08/13 09:04:44;;;;;;;7.93;1.80;;;;;;;;;;4900002;29;20048;-78
2023/08/13 09:07:09;;;;;;;9.88;2.03;;;;;;;;;;4898791;29;20043;-77
2023/08/13 09:09:36;;;;;;;6.80;1.60;;;;;;;;;;4900124;29;20048;-80
2023/08/13 09:12:01;;;;;;;11.93;1.83;;;;;;;;;;4898756;29;20536;-80
2023/08/13 09:14:27;;;;;;;14.18;2.05;;;;;;;;;;4898503;29;20041;-78
2023/08/13 09:16:55;;;;;;;16.65;2.30;;;;;;;;;;4898833;29;20116;-79
2023/08/13 09:19:25;;;;;;;12.95;1.73;;;;;;;;;;4897881;29;20052;-78
2023/08/13 09:21:57;;;;;;;9.98;1.73;;;;;;;;;;4898452;29;20047;-80
2023/08/13 09:24:32;;;;;;;8.07;2.03;;;;;;;;;;4898784;29;20100;-80
2023/08/13 09:26:58;;;;;;;12.15;1.50;;;;;;;;;;4898470;29;20158;-80
2023/08/13 09:29:23;;;;;;;10.88;1.52;;;;;;;;;;4897932;29;20072;-79
2023/08/13 09:31:49;;;;;;;13.20;1.73;;;;;;;;;;4897935;29;20067;-80
2023/08/13 09:34:15;;;;;;;9.63;1.75;;;;;;;;;;4898499;29;20152;-79
2023/08/13 09:36:40;;;;;;;12.13;2.03;;;;;;;;;;4881792;29;20541;-77
2023/08/13 09:39:07;;;;;;;9.55;1.73;;;;;;;;;;4898040;29;20120;-79
2023/08/13 09:41:33;;;;;;;9.32;2.10;;;;;;;;;;4897812;29;20072;-79
2023/08/13 09:44:05;;;;;;;11.27;1.83;;;;;;;;;;4897778;29;20064;-79
2023/08/13 09:46:31;;;;;;;11.60;1.77;;;;;;;;;;4897267;29;20140;-79
2023/08/13 09:48:59;;;;;;;9.68;1.88;;;;;;;;;;4898172;29;20044;-77
2023/08/13 09:51:30;;;;;;;8.32;2.05;;;;;;;;;;4897748;29;20127;-78
2023/08/13 09:54:03;;;;;;;11.65;1.67;;;;;;;;;;4897376;29;20085;-76
2023/08/13 09:56:30;;;;;;;7.65;1.60;;;;;;;;;;4897010;29;20045;-79
2023/08/13 09:58:56;;;;;;;10.27;1.70;;;;;;;;;;4897341;29;20152;-78
2023/08/13 10:01:23;;;;;;;7.07;1.65;;;;;;;;;;4896640;29;20136;-76
2023/08/13 10:03:50;;;;;;;11.88;1.88;;;;;;;;;;4897749;29;20044;-80
2023/08/13 10:06:17;;;;;;;10.95;2.08;;;;;;;;;;4896907;29;20135;-78
2023/08/13 10:08:42;;;;;;;8.13;1.60;;;;;;;;;;4896940;29;20044;-81
2023/08/13 10:11:09;;;;;;;8.82;1.90;;;;;;;;;;4897000;29;20036;-85
2023/08/13 10:13:34;;;;;;;7.50;1.58;;;;;;;;;;4890894;29;20063;-83
2023/08/13 10:16:01;;;;;;;8.70;1.25;;;;;;;;;;4886753;29;20505;-84
2023/08/13 10:18:28;;;;;;;8.00;1.42;;;;;;;;;;4891002;29;20106;-85
2023/08/13 10:20:53;;;;;;;7.07;1.50;;;;;;;;;;4879109;29;20056;-84
2023/08/13 10:23:19;;;;;;;7.07;1.70;;;;;;;;;;4892115;29;20048;-84
2023/08/13 10:25:44;;;;;;;8.32;1.50;;;;;;;;;;4893773;29;20569;-82
2023/08/13 10:28:28;;;;;;;5.47;1.40;;;;;;;;;;4875221;29;20128;-82
2023/08/13 10:31:21;;;;;;;9.65;1.73;;;;;;;;;;4881736;29;20045;-84
2023/08/13 10:33:47;;;;;;;8.40;1.50;;;;;;;;;;4883647;29;20413;-82
2023/08/13 10:36:12;;;;;;;6.32;1.60;;;;;;;;;;4874451;29;20052;-82
2023/08/13 10:38:40;;;;;;;6.70;1.30;;;;;;;;;;4879797;29;20049;-83
2023/08/13 10:41:07;;;;;;;6.57;1.23;;;;;;;;;;4884860;29;20083;-82
2023/08/13 10:43:35;;;;;;;6.32;1.20;;;;;;;;;;4887172;29;20577;-83
2023/08/13 10:46:04;;;;;;;5.68;1.20;;;;;;;;;;4872576;29;20037;-81
2023/08/13 10:48:30;;;;;;;8.52;1.50;;;;;;;;;;4883798;29;20159;-83
2023/08/13 10:50:57;;;;;;;4.85;1.33;;;;;;;;;;4889800;29;20075;-81
2023/08/13 10:53:26;;;;;;;7.43;1.42;;;;;;;;;;4888207;29;20117;-84
2023/08/13 10:55:53;;;;;;;7.47;1.40;;;;;;;;;;4871370;29;20132;-82
2023/08/13 10:58:26;;;;;;;6.95;1.40;;;;;;;;;;4878016;29;20048;-84
2023/08/13 11:00:56;;;;;;;9.02;1.38;;;;;;;;;;4887528;29;20080;-82
2023/08/13 11:03:33;;;;;;;8.68;1.20;;;;;;;;;;4883108;29;20044;-80
2023/08/13 11:06:01;;;;;;;6.75;1.48;;;;;;;;;;4888370;29;20866;-81
2023/08/13 11:08:26;;;;;;;5.43;1.05;;;;;;;;;;4887902;29;20056;-81
2023/08/13 11:10:53;;;;;;;5.20;1.10;;;;;;;;;;4889364;29;20430;-83
2023/08/13 11:13:20;;;;;;;7.90;1.40;;;;;;;;;;4890855;29;20056;-82
2023/08/13 11:15:53;;;;;;;6.85;1.38;;;;;;;;;;4888606;29;20573;-82
2023/08/13 11:18:20;;;;;;;5.85;1.25;;;;;;;;;;4872638;29;20064;-81
2023/08/13 11:20:46;;;;;;;4.65;0.93;;;;;;;;;;4886506;29;20044;-81
2023/08/13 11:23:16;;;;;;;5.70;1.35;;;;;;;;;;4889038;29;20047;-81
2023/08/13 11:25:44;;;;;;;7.32;1.45;;;;;;;;;;4889561;29;20536;-83
2023/08/13 11:28:10;;;;;;;6.50;1.33;;;;;;;;;;4888601;29;20147;-81
2023/08/13 11:30:40;;;;;;;4.65;1.15;;;;;;;;;;4890611;29;20054;-81
2023/08/13 11:33:05;;;;;;;8.65;1.63;;;;;;;;;;4889401;29;20040;-83
2023/08/13 11:35:31;;;;;;;8.23;1.30;;;;;;;;;;4890415;29;20048;-83
2023/08/13 11:37:56;;;;;;;7.03;1.45;;;;;;;;;;4878297;29;20041;-82
2023/08/13 11:40:22;;;;;;;4.68;1.10;;;;;;;;;;4887769;29;20148;-82
2023/08/13 11:42:58;;;;;;;4.38;0.95;;;;;;;;;;4889059;29;20080;-82
2023/08/13 11:45:25;;;;;;;5.07;1.00;;;;;;;;;;4882843;29;20501;-82
2023/08/13 11:47:52;;;;;;;7.22;1.38;;;;;;;;;;4872835;29;20048;-83
2023/08/13 11:50:27;;;;;;;6.32;1.25;;;;;;;;;;4890311;29;20048;-82
2023/08/13 11:53:03;;;;;;;4.05;1.27;;;;;;;;;;4894065;29;20047;-84
2023/08/13 11:55:29;;;;;;;9.45;1.50;;;;;;;;;;4894369;29;20049;-81
2023/08/13 11:57:55;;;;;;;4.75;1.10;;;;;;;;;;4893778;29;20032;-83
2023/08/13 12:00:20;;;;;;;5.95;1.40;;;;;;;;;;4878155;29;20044;-83
2023/08/13 12:02:47;;;;;;;5.00;1.38;;;;;;;;;;4895050;29;20135;-83
2023/08/13 12:05:12;;;;;;;7.50;1.40;;;;;;;;;;4895178;29;20099;-83
2023/08/13 12:07:41;;;;;;;5.28;1.35;;;;;;;;;;4895988;29;20044;-83
2023/08/13 12:10:07;;;;;;;9.50;1.30;;;;;;;;;;4894970;29;20045;-82
2023/08/13 12:12:32;;;;;;;5.90;1.20;;;;;;;;;;4895632;29;20406;-83
2023/08/13 12:14:58;;;;;;;4.50;1.00;;;;;;;;;;4895690;29;20645;-82
2023/08/13 12:17:23;;;;;;;7.47;1.40;;;;;;;;;;4895027;29;20200;-82
2023/08/13 12:19:48;;;;;;;6.90;1.33;;;;;;;;;;4895514;29;20052;-83
2023/08/13 12:22:14;;;;;;;4.35;1.27;;;;;;;;;;4894502;29;20061;-83
2023/08/13 12:24:39;;;;;;;5.70;1.50;;;;;;;;;;4893175;29;20624;-83
2023/08/13 12:27:05;;;;;;;6.97;1.38;;;;;;;;;;4894109;29;20045;-82
2023/08/13 12:29:30;;;;;;;4.13;1.15;;;;;;;;;;4894812;29;20501;-82
2023/08/13 12:31:56;;;;;;;7.28;1.70;;;;;;;;;;4894793;29;20525;-83
2023/08/13 12:34:21;;;;;;;5.18;1.05;;;;;;;;;;4899321;29;20080;-83
2023/08/13 12:36:47;;;;;;;5.10;1.08;;;;;;;;;;4883097;29;20135;-80
2023/08/13 12:39:13;;;;;;;5.68;1.17;;;;;;;;;;4866857;29;20528;-79
2023/08/13 12:41:38;;;;;;;6.22;1.23;;;;;;;;;;4891389;29;20052;-79
2023/08/13 12:44:04;;;;;;;6.40;1.10;;;;;;;;;;4894845;29;20184;-78
2023/08/13 12:46:29;;;;;;;5.50;1.33;;;;;;;;;;4891744;29;20455;-78
2023/08/13 12:48:55;;;;;;;6.22;1.52;;;;;;;;;;4884208;29;20506;-79
2023/08/13 12:51:21;;;;;;;5.53;1.20;;;;;;;;;;4889409;29;20191;-77
2023/08/13 12:53:46;;;;;;;7.55;1.40;;;;;;;;;;4893197;29;20045;-77
2023/08/13 12:56:12;;;;;;;7.32;1.17;;;;;;;;;;4893395;29;20044;-78
2023/08/13 12:58:38;;;;;;;5.57;1.23;;;;;;;;;;4887610;29;20053;-79
2023/08/13 13:01:03;;;;;;;11.15;1.80;;;;;;;;;;4876831;29;20063;-78
2023/08/13 13:03:30;;;;;;;7.13;1.20;;;;;;;;;;4887637;29;20045;-80
2023/08/13 13:05:56;;;;;;;9.55;1.50;;;;;;;;;;4886470;29;20135;-80
2023/08/13 13:08:21;;;;;;;8.75;1.20;;;;;;;;;;4887464;29;20052;-80
2023/08/13 13:10:47;;;;;;;8.00;1.63;;;;;;;;;;4893755;29;20424;-80
2023/08/13 13:13:12;;;;;;;9.13;1.85;;;;;;;;;;4888325;29;20470;-79
2023/08/13 13:15:37;;;;;;;6.30;1.58;;;;;;;;;;4892366;29;20317;-79
2023/08/13 13:18:03;;;;;;;5.50;1.25;;;;;;;;;;4891306;29;20049;-79
2023/08/13 13:20:28;;;;;;;5.45;1.38;;;;;;;;;;4883417;29;20056;-79
2023/08/13 13:22:54;;;;;;;6.15;1.48;;;;;;;;;;4891756;29;20049;-78
2023/08/13 13:25:19;;;;;;;9.27;1.48;;;;;;;;;;4890643;29;20091;-78
2023/08/13 13:27:46;;;;;;;7.32;1.48;;;;;;;;;;4889989;29;20390;-77
2023/08/13 13:30:11;;;;;;;9.27;1.52;;;;;;;;;;4890872;29;20052;-78
2023/08/13 13:32:37;;;;;;;8.80;1.40;;;;;;;;;;4873455;29;20059;-78
2023/08/13 13:35:03;;;;;;;7.15;1.30;;;;;;;;;;4891124;29;20462;-80
2023/08/13 13:37:28;;;;;;;4.28;1.10;;;;;;;;;;4889518;29;20052;-79
2023/08/13 13:39:55;;;;;;;6.47;1.27;;;;;;;;;;4882701;29;20065;-78
2023/08/13 13:42:20;;;;;;;6.10;1.38;;;;;;;;;;4876374;29;20040;-80
2023/08/13 13:44:46;;;;;;;5.55;1.20;;;;;;;;;;4891033;29;20051;-79
2023/08/13 13:47:11;;;;;;;6.35;1.40;;;;;;;;;;4888235;29;20139;-80
2023/08/13 13:49:37;;;;;;;5.07;0.95;;;;;;;;;;4890864;29;20048;-77
2023/08/13 13:52:02;;;;;;;7.13;1.50;;;;;;;;;;4890497;29;20044;-76
2023/08/13 13:54:29;;;;;;;6.90;1.40;;;;;;;;;;4889482;29;20532;-78
2023/08/13 13:56:54;;;;;;;6.05;1.70;;;;;;;;;;4882650;29;20049;-79
2023/08/13 13:59:19;;;;;;;4.15;1.40;;;;;;;;;;4888631;29;20099;-78
2023/08/13 14:01:46;;;;;;;4.78;1.25;;;;;;;;;;4871712;29;20048;-77
2023/08/13 14:04:12;;;;;;;10.27;1.50;;;;;;;;;;4888225;29;20410;-76
2023/08/13 14:06:40;;;;;;;6.53;1.08;;;;;;;;;;4888983;29;20045;-77
2023/08/13 14:09:06;;;;;;;6.82;1.35;;;;;;;;;;4887872;29;20043;-77
2023/08/13 14:11:31;;;;;;;4.50;0.98;;;;;;;;;;4890664;29;20044;-77
2023/08/13 14:13:57;;;;;;;7.78;1.30;;;;;;;;;;4890348;29;20833;-79
2023/08/13 14:16:23;;;;;;;6.07;1.48;;;;;;;;;;4890431;29;20107;-78
2023/08/13 14:18:48;;;;;;;10.80;1.55;;;;;;;;;;4887812;29;20051;-78
2023/08/13 14:21:13;;;;;;;7.15;1.50;;;;;;;;;;4889790;29;20442;-79
2023/08/13 14:23:39;;;;;;;7.40;1.45;;;;;;;;;;4887463;29;20549;-79
2023/08/13 14:26:04;;;;;;;6.97;1.10;;;;;;;;;;4888176;29;20160;-76
2023/08/13 14:28:30;;;;;;;8.55;1.52;;;;;;;;;;4889837;29;20421;-78
2023/08/13 14:30:56;;;;;;;5.82;1.25;;;;;;;;;;4895539;29;20055;-78
2023/08/13 14:33:21;;;;;;;7.65;1.42;;;;;;;;;;4895509;29;20533;-78
2023/08/13 14:35:47;;;;;;;6.60;1.33;;;;;;;;;;4892219;29;20041;-78
2023/08/13 14:38:12;;;;;;;7.53;1.65;;;;;;;;;;4876893;29;20076;-78
2023/08/13 14:40:37;;;;;;;5.05;1.33;;;;;;;;;;4877157;29;20063;-79
2023/08/13 14:43:03;;;;;;;11.82;1.73;;;;;;;;;;4877906;29;20456;-78
2023/08/13 14:45:29;;;;;;;7.18;1.25;;;;;;;;;;4890063;29;20108;-79
2023/08/13 14:47:54;;;;;;;8.32;1.42;;;;;;;;;;4897074;29;20060;-79
2023/08/13 14:50:20;;;;;;;8.27;1.70;;;;;;;;;;4900647;29;20159;-78
2023/08/13 14:52:45;;;;;;;7.53;1.60;;;;;;;;;;4894669;29;20045;-80
2023/08/13 14:55:11;;;;;;;8.55;1.75;;;;;;;;;;4895568;29;20510;-78
2023/08/13 14:57:36;;;;;;;7.13;1.38;;;;;;;;;;4896579;29;20135;-79
2023/08/13 15:00:07;;;;;;;7.57;1.60;;;;;;;;;;4896829;29;20477;-80
2023/08/13 15:02:33;;;;;;;4.88;1.17;;;;;;;;;;4895755;29;20132;-79
2023/08/13 15:04:58;;;;;;;5.78;1.42;;;;;;;;;;4896237;29;20120;-79
2023/08/13 15:07:24;;;;;;;6.03;1.50;;;;;;;;;;4895621;29;20768;-79
2023/08/13 15:09:49;;;;;;;7.65;1.67;;;;;;;;;;4896038;29;20040;-79
2023/08/13 15:12:14;;;;;;;10.07;1.65;;;;;;;;;;4895590;29;20066;-79
2023/08/13 15:14:40;;;;;;;9.23;1.60;;;;;;;;;;4896122;29;20044;-79
2023/08/13 15:17:05;;;;;;;6.78;1.42;;;;;;;;;;4894519;29;20111;-78
2023/08/13 15:19:32;;;;;;;8.80;1.50;;;;;;;;;;4896060;29;20639;-80
2023/08/13 15:21:57;;;;;;;5.88;1.60;;;;;;;;;;4893437;29;20041;-80
2023/08/13 15:24:22;;;;;;;10.57;1.90;;;;;;;;;;4895028;29;20055;-78
2023/08/13 15:26:48;;;;;;;9.38;1.60;;;;;;;;;;4894765;29;20116;-78
2023/08/13 15:29:13;;;;;;;7.85;1.77;;;;;;;;;;4894999;29;20055;-80
2023/08/13 15:31:39;;;;;;;10.18;2.00;;;;;;;;;;4895783;29;20045;-79
2023/08/13 15:34:04;;;;;;;6.72;1.38;;;;;;;;;;4894704;29;20600;-79
2023/08/13 15:36:32;;;;;;;5.97;1.60;;;;;;;;;;4894894;29;20056;-78
2023/08/13 15:38:57;;;;;;;8.93;1.50;;;;;;;;;;4893582;29;20045;-78
2023/08/13 15:41:22;;;;;;;9.23;1.67;;;;;;;;;;4894896;29;20053;-79
2023/08/13 15:43:48;;;;;;;8.68;1.75;;;;;;;;;;4894913;29;20068;-79
2023/08/13 15:46:13;;;;;;;9.57;1.45;;;;;;;;;;4883285;29;20560;-77
2023/08/13 15:48:39;;;;;;;9.23;1.77;;;;;;;;;;4884054;29;20052;-78
2023/08/13 15:51:04;;;;;;;9.75;1.45;;;;;;;;;;4882075;29;20076;-78
2023/08/13 15:53:30;;;;;;;6.40;1.52;;;;;;;;;;4870367;29;20526;-77
2023/08/13 15:55:55;;;;;;;9.82;1.70;;;;;;;;;;4882073;29;20040;-79
2023/08/13 15:58:21;;;;;;;8.88;1.63;;;;;;;;;;4876655;29;20139;-79
2023/08/13 16:00:46;;;;;;;9.23;1.80;;;;;;;;;;4877962;29;20061;-79
2023/08/13 16:03:12;;;;;;;11.02;1.80;;;;;;;;;;4881606;29;20549;-79
2023/08/13 16:05:37;;;;;;;11.05;1.80;;;;;;;;;;4873244;29;20064;-78
2023/08/13 16:08:03;;;;;;;7.70;1.77;;;;;;;;;;4869881;29;20055;-79
2023/08/13 16:10:29;;;;;;;13.07;2.28;;;;;;;;;;4869263;29;20413;-78
2023/08/13 16:12:54;;;;;;;10.27;2.30;;;;;;;;;;4870397;29;20077;-78
2023/08/13 16:15:19;;;;;;;10.43;1.85;;;;;;;;;;4869095;29;20100;-79
2023/08/13 16:17:47;;;;;;;9.20;1.98;;;;;;;;;;4869757;29;20056;-78
2023/08/13 16:20:13;;;;;;;10.50;2.22;;;;;;;;;;4877877;29;20052;-78
2023/08/13 16:22:40;;;;;;;8.68;1.95;;;;;;;;;;4873499;29;20060;-77
2023/08/13 16:25:07;;;;;;;11.68;2.58;;;;;;;;;;4872714;29;20052;-78
2023/08/13 16:27:33;;;;;;;14.93;2.28;;;;;;;;;;4869870;29;20105;-80
2023/08/13 16:29:59;;;;;;;12.85;2.30;;;;;;;;;;4879486;29;20055;-78
2023/08/13 16:32:25;;;;;;;11.00;2.30;;;;;;;;;;4887311;29;20123;-77
2023/08/13 16:34:51;;;;;;;15.20;2.22;;;;;;;;;;4888663;29;20131;-78
2023/08/13 16:37:16;;;;;;;16.70;2.22;;;;;;;;;;4887669;29;20430;-78
2023/08/13 16:39:41;;;;;;;10.00;2.03;;;;;;;;;;4871734;29;20096;-76
2023/08/13 16:42:07;;;;;;;15.82;2.65;;;;;;;;;;4888007;29;20043;-78
2023/08/13 16:44:32;;;;;;;15.00;2.45;;;;;;;;;;4888523;29;20079;-76
2023/08/13 16:46:57;;;;;;;11.45;2.30;;;;;;;;;;4887715;29;20062;-78
2023/08/13 16:49:25;;;;;;;15.95;2.30;;;;;;;;;;4890080;29;20048;-77
2023/08/13 16:51:50;;;;;;;15.13;2.67;;;;;;;;;;4892248;29;20048;-80
2023/08/13 16:54:16;;;;;;;14.00;2.55;;;;;;;;;;4871882;29;20084;-77
2023/08/13 16:56:41;;;;;;;10.98;2.50;;;;;;;;;;4874091;29;20155;-78
2023/08/13 16:59:06;;;;;;;16.52;2.50;;;;;;;;;;4879480;29;20045;-79
2023/08/13 17:01:32;;;;;;;14.05;2.25;;;;;;;;;;4877228;29;20415;-78
2023/08/13 17:03:57;;;;;;;14.43;2.60;;;;;;;;;;4873083;29;20474;-79
2023/08/13 17:06:24;;;;;;;15.98;3.22;;;;;;;;;;4871870;29;20079;-79
2023/08/13 17:08:49;;;;;;;16.60;2.75;;;;;;;;;;4872909;29;20091;-78
2023/08/13 17:11:14;;;;;;;17.50;3.10;;;;;;;;;;4876300;29;20498;-79
2023/08/13 17:13:40;;;;;;;13.45;2.63;;;;;;;;;;4873486;29;20057;-78
2023/08/13 17:16:07;;;;;;;17.10;3.30;;;;;;;;;;4872286;29;20060;-77
2023/08/13 17:18:33;;;;;;;13.57;2.63;;;;;;;;;;4873262;29;20180;-78
2023/08/13 17:20:58;;;;;;;15.93;3.25;;;;;;;;;;4872345;29;20147;-79
2023/08/13 17:23:24;;;;;;;15.07;3.00;;;;;;;;;;4871641;29;20059;-78
2023/08/13 17:25:49;;;;;;;13.98;2.80;;;;;;;;;;4871562;29;20052;-79
2023/08/13 17:28:15;;;;;;;19.45;2.80;;;;;;;;;;4871702;29;20057;-79
2023/08/13 17:30:41;;;;;;;13.60;2.88;;;;;;;;;;4871691;29;20108;-80
2023/08/13 17:33:07;;;;;;;12.20;2.72;;;;;;;;;;4873002;29;20395;-79
2023/08/13 17:35:32;;;;;;;16.15;2.88;;;;;;;;;;4871171;29;20053;-79
2023/08/13 17:37:58;;;;;;;18.33;3.05;;;;;;;;;;4872288;29;20041;-79
2023/08/13 17:40:23;;;;;;;19.20;2.88;;;;;;;;;;4872035;29;20589;-80
2023/08/13 17:42:49;;;;;;;18.27;3.05;;;;;;;;;;4873091;29;20053;-80
2023/08/13 17:45:14;;;;;;;20.55;3.08;;;;;;;;;;4884271;29;20049;-80
2023/08/13 17:47:40;;;;;;;15.88;3.10;;;;;;;;;;4872459;29;20418;-79
2023/08/13 17:50:06;;;;;;;14.40;3.10;;;;;;;;;;4872449;29;20040;-79
2023/08/13 17:52:31;;;;;;;16.48;2.65;;;;;;;;;;4872303;29;20569;-80
2023/08/13 17:54:57;;;;;;;18.98;2.95;;;;;;;;;;4884882;29;20048;-79
2023/08/13 17:57:22;;;;;;;13.77;2.67;;;;;;;;;;4871969;29;20096;-80
2023/08/13 17:59:47;;;;;;;13.23;2.70;;;;;;;;;;4887495;29;20036;-78
2023/08/13 18:02:13;;;;;;;13.95;2.35;;;;;;;;;;4871287;29;20472;-79
2023/08/13 18:04:39;;;;;;;15.02;2.50;;;;;;;;;;4855677;29;20089;-79
2023/08/13 18:07:05;;;;;;;12.27;2.70;;;;;;;;;;4879408;29;20037;-80
2023/08/13 18:09:30;;;;;;;12.65;2.67;;;;;;;;;;4886578;29;20037;-80
2023/08/13 18:11:58;;;;;;;10.80;2.40;;;;;;;;;;4872019;29;20041;-81
2023/08/13 18:14:23;;;;;;;16.52;3.00;;;;;;;;;;4871603;29;20128;-78
2023/08/13 18:16:49;;;;;;;14.77;3.03;;;;;;;;;;4870827;29;20112;-78
2023/08/13 18:19:14;;;;;;;15.50;2.90;;;;;;;;;;4856405;29;21553;-79
2023/08/13 18:21:40;;;;;;;16.10;2.90;;;;;;;;;;4871935;29;20049;-79
2023/08/13 18:24:05;;;;;;;14.40;2.88;;;;;;;;;;4871393;29;20041;-78
2023/08/13 18:26:31;;;;;;;14.52;3.60;;;;;;;;;;4872084;29;20045;-79
2023/08/13 18:28:56;;;;;;;16.58;3.17;;;;;;;;;;4874825;29;20048;-79
2023/08/13 18:31:21;;;;;;;14.85;3.22;;;;;;;;;;4889932;29;20052;-79
2023/08/13 18:33:47;;;;;;;18.05;2.72;;;;;;;;;;4890001;29;20139;-79
2023/08/13 18:36:12;;;;;;;18.75;3.20;;;;;;;;;;4890087;29;20188;-78
2023/08/13 18:38:38;;;;;;;20.13;3.42;;;;;;;;;;4890618;29;20091;-78
2023/08/13 18:41:03;;;;;;;20.00;2.92;;;;;;;;;;4890355;29;20510;-79
2023/08/13 18:43:29;;;;;;;17.67;2.88;;;;;;;;;;4889642;29;20054;-79
2023/08/13 18:45:54;;;;;;;19.90;2.90;;;;;;;;;;4890106;29;20052;-78
2023/08/13 18:48:21;;;;;;;21.45;3.33;;;;;;;;;;4877160;29;20064;-78
2023/08/13 18:50:48;;;;;;;18.83;3.28;;;;;;;;;;4890293;29;20040;-79
2023/08/13 18:53:14;;;;;;;20.25;3.72;;;;;;;;;;4861719;29;20403;-79
2023/08/13 18:55:40;;;;;;;20.52;3.55;;;;;;;;;;4876882;29;20577;-79
2023/08/13 18:58:06;;;;;;;19.48;3.80;;;;;;;;;;4878017;29;20537;-79
2023/08/13 19:00:31;;;;;;;18.20;3.08;;;;;;;;;;4886182;29;20056;-80
2023/08/13 19:02:57;;;;;;;18.73;3.00;;;;;;;;;;4879475;29;20548;-81
2023/08/13 19:05:22;;;;;;;18.50;2.90;;;;;;;;;;4887257;29;20465;-79
2023/08/13 19:07:48;;;;;;;20.85;3.17;;;;;;;;;;4888105;29;20041;-80
2023/08/13 19:10:13;;;;;;;22.92;3.10;;;;;;;;;;4878656;29;20403;-79
2023/08/13 19:12:39;;;;;;;25.55;4.38;;;;;;;;;;4883916;29;20059;-79
2023/08/13 19:15:05;;;;;;;16.77;3.67;;;;;;;;;;4887905;29;20044;-79
2023/08/13 19:17:30;;;;;;;22.33;4.13;;;;;;;;;;4888050;29;20052;-80
2023/08/13 19:19:56;;;;;;;14.63;2.75;;;;;;;;;;4887802;29;20143;-80
2023/08/13 19:22:21;;;;;;;18.77;3.20;;;;;;;;;;4887152;29;20139;-80
2023/08/13 19:24:46;;;;;;;18.10;3.28;;;;;;;;;;4887551;29;20581;-80
2023/08/13 19:27:12;;;;;;;25.80;3.47;;;;;;;;;;4886977;29;20159;-80
2023/08/13 19:29:37;;;;;;;26.25;3.30;;;;;;;;;;4888162;29;20053;-79
2023/08/13 19:32:03;;;;;;;15.93;3.47;;;;;;;;;;4876001;29;20082;-80
2023/08/13 19:34:31;;;;;;;27.30;4.25;;;;;;;;;;4872074;29;20104;-79
2023/08/13 19:36:56;;;;;;;20.23;3.85;;;;;;;;;;4869086;29;20036;-81
2023/08/13 19:39:22;;;;;;;27.60;4.03;;;;;;;;;;4868534;29;20574;-81
2023/08/13 19:41:47;;;;;;;21.35;4.03;;;;;;;;;;4869538;29;20036;-81
2023/08/13 19:44:13;;;;;;;21.92;3.78;;;;;;;;;;4867949;29;20593;-80
2023/08/13 19:46:38;;;;;;;24.02;3.60;;;;;;;;;;4868594;29;20061;-80
2023/08/13 19:49:03;;;;;;;24.33;3.83;;;;;;;;;;4868420;29;20041;-79
2023/08/13 19:51:29;;;;;;;24.35;3.35;;;;;;;;;;4868690;29;20053;-80
2023/08/13 19:53:54;;;;;;;15.10;3.35;;;;;;;;;;4873775;29;20037;-80
2023/08/13 19:56:21;;;;;;;24.10;3.67;;;;;;;;;;4874323;29;20312;-80
2023/08/13 19:58:47;;;;;;;21.58;3.95;;;;;;;;;;4873209;29;20045;-80
2023/08/13 20:01:12;;;;;;;18.88;3.17;;;;;;;;;;4874036;29;20442;-80
2023/08/13 20:03:38;;;;;;;19.50;3.10;;;;;;;;;;4868473;29;20048;-80
2023/08/13 20:06:03;;;;;;;20.52;3.58;;;;;;;;;;4880414;29;20417;-79
2023/08/13 20:08:29;;;;;;;23.75;3.28;;;;;;;;;;4885059;29;20120;-79
2023/08/13 20:10:54;;;;;;;15.52;2.90;;;;;;;;;;4868373;29;20407;-79
2023/08/13 20:13:20;;;;;;;21.30;4.10;;;;;;;;;;4867850;29;20600;-80
2023/08/13 20:15:45;;;;;;;23.38;3.95;;;;;;;;;;4868216;29;20689;-79
2023/08/13 20:18:11;;;;;;;23.50;3.45;;;;;;;;;;4868393;29;20048;-79
2023/08/13 20:20:36;;;;;;;19.63;3.00;;;;;;;;;;4875809;29;20136;-79
2023/08/13 20:23:02;;;;;;;27.92;3.90;;;;;;;;;;4872142;29;20049;-79
2023/08/13 20:25:27;;;;;;;24.85;3.72;;;;;;;;;;4868284;29;20049;-79
2023/08/13 20:27:53;;;;;;;26.92;4.07;;;;;;;;;;4870031;29;20045;-80
2023/08/13 20:30:18;;;;;;;29.33;4.13;;;;;;;;;;4885976;29;20076;-80